Latest Weather Observations for Busselton Airport

IDW60801

Issued at 12:02 pm WST Wednesday 28 January 2015 (issued every 30 minutes, with the page automatically refreshed every 10 minutes)

About weather observations | Map of weather stations | Latest weather observations for WA | Other Formats
Station Details ID: 009603 Name: BUSSELTON AERO Lat: -33.69 Lon: 115.40 Height: 16.3 m
Data from the previous 72 hours. | See also: Recent months at Busselton Airport
Date/Time
WST
Temp
°C
App
Temp
°C
Dew
Point
Rel
Hum
%
Delta-T
°C
Wind Press
QNH
hPa
Press
MSL
hPa
Rain
since 9 am
mm
Dir
 
Spd
km/h
Gust
km/h
Spd
kts
Gust
kts
28/12:00pm 33.4 30.4 14.9 32 11.5 N 24 32 13 17 1007.9 1007.9 0.0
28/11:30am 33.9 29.8 13.9 30 12.2 N 28 37 15 20 1007.9 1007.9 0.0
28/11:00am 33.5 28.2 12.5 28 12.6 N 32 41 17 22 1007.9 1007.9 0.0
28/10:30am 33.9 28.7 11.7 26 13.1 N 30 43 16 23 1007.8 1007.8 0.0
28/10:00am 32.9 28.8 11.4 27 12.6 N 24 35 13 19 1007.7 1007.7 0.0
28/09:30am 32.3 29.0 11.5 28 12.2 NNE 20 32 11 17 1007.6 1007.6 0.0
28/09:00am 31.0 28.5 10.9 29 11.6 ENE 15 22 8 12 1007.7 1007.7 0.0
28/08:30am 29.9 27.2 10.5 30 11.1 ENE 15 19 8 10 1007.6 1007.6 0.0
28/08:00am 26.8 23.9 9.6 34 9.5 E 15 19 8 10 1007.6 1007.6 0.0
28/07:30am 26.9 24.0 9.7 34 9.5 E 15 20 8 11 1007.7 1007.7 0.0
28/07:00am 25.5 23.0 9.7 37 8.7 E 13 17 7 9 1007.4 1007.4 0.0
28/06:30am 23.3 21.2 9.7 42 7.4 ESE 11 13 6 7 1007.3 1007.3 0.0
28/06:00am 22.7 21.3 9.5 43 7.1 ESE 7 9 4 5 1007.3 1007.3 0.0
28/05:30am 21.6 19.4 9.2 45 6.6 ESE 11 19 6 10 1006.9 1006.9 0.0
28/05:00am 21.1 19.1 8.7 45 6.6 S 9 9 5 5 1006.8 1006.8 0.0
28/04:30am 21.8 20.2 8.7 43 6.9 ESE 7 13 4 7 1006.4 1006.4 0.0
28/04:00am 22.4 20.0 8.5 41 7.4 ESE 11 15 6 8 1006.2 1006.2 0.0
28/03:30am 24.0 20.4 8.4 37 8.3 ESE 17 22 9 12 1006.1 1006.1 0.0
28/03:00am 23.5 19.9 8.4 38 8.1 SE 17 19 9 10 1006.3 1006.3 0.0
28/02:30am 23.8 22.0 7.8 36 8.4 E 7 11 4 6 1006.9 1006.9 0.0
28/02:00am 24.4 20.6 7.5 34 8.9 ESE 17 20 9 11 1006.4 1006.4 0.0
28/01:30am 24.9 21.1 7.5 33 9.2 ESE 17 20 9 11 1006.7 1006.7 0.0
28/01:00am 26.4 22.0 7.4 30 10.1 ESE 20 26 11 14 1007.1 1007.1 0.0
28/12:30am 26.5 21.4 7.5 30 10.1 ESE 24 32 13 17 1007.0 1007.0 0.0
 
Date/Time
WST
Temp
°C
App
Temp
°C
Dew
Point
Rel
Hum
%
Delta-T
°C
Wind Press
QNH
hPa
Press
MSL
hPa
Rain
since 9 am
mm
Dir
 
Spd
km/h
Gust
km/h
Spd
kts
Gust
kts
27/11:30pm 26.9 22.6 7.9 30 10.2 ESE 20 26 11 14 1007.2 1007.2 0.0
27/11:00pm 27.2 23.3 8.6 31 10.2 ESE 19 24 10 13 1007.4 1007.4 0.0
27/10:30pm 27.7 23.9 9.0 31 10.3 ESE 19 24 10 13 1007.4 1007.4 0.0
27/10:00pm 28.6 24.7 9.3 30 10.7 SE 20 30 11 16 1007.5 1007.5 0.0
27/09:30pm 28.8 24.4 9.0 29 10.9 SE 22 26 12 14 1007.4 1007.4 0.0
27/09:00pm 29.1 25.6 8.7 28 11.3 SSE 17 24 9 13 1007.6 1007.6 0.0
27/08:30pm 28.1 24.5 8.4 29 10.7 S 17 20 9 11 1007.4 1007.4 0.0
27/08:00pm 29.1 25.0 8.7 28 11.3 S 20 28 11 15 1007.1 1007.1 0.0
27/07:30pm 30.0 26.3 10.0 29 11.3 S 20 26 11 14 1006.9 1006.9 0.0
27/07:00pm 31.4 27.6 11.2 29 11.7 S 22 32 12 17 1006.9 1006.9 0.0
27/06:30pm 32.7 28.8 10.7 26 12.8 SSW 22 33 12 18 1006.6 1006.6 0.0
27/06:00pm 34.3 29.3 10.8 24 13.8 S 28 37 15 20 1006.4 1006.4 0.0
27/05:30pm 35.0 30.1 11.4 24 13.9 SSW 28 35 15 19 1006.2 1006.2 0.0
27/05:00pm 36.1 32.8 11.7 23 14.6 SW 20 28 11 15 1006.2 1006.2 0.0
27/04:30pm 36.1 32.5 11.7 23 14.5 SW 22 30 12 16 1006.5 1006.5 0.0
27/04:00pm 36.5 32.4 11.3 22 15.0 SW 24 33 13 18 1006.6 1006.6 0.0
27/03:30pm 36.4 32.6 7.4 17 16.2 WNW 17 24 9 13 1006.6 1006.6 0.0
27/03:00pm 36.3 32.3 8.2 18 15.9 NW 19 24 10 13 1006.8 1006.8 0.0
27/02:30pm 36.2 32.4 9.7 20 15.3 NW 20 24 11 13 1006.9 1006.9 0.0
27/02:00pm 35.8 31.7 10.1 21 15.0 NW 22 28 12 15 1007.0 1007.0 0.0
27/01:30pm 37.1 33.6 8.8 18 16.2 NW 17 28 9 15 1007.1 1007.1 0.0
27/01:00pm 36.4 33.2 8.3 18 16.0 NNW 15 20 8 11 1007.5 1007.5 0.0
27/12:30pm 35.8 32.8 7.8 18 15.7 S 13 30 7 16 1007.8 1007.8 0.0
27/12:00pm 34.5 31.6 8.3 20 14.8 SSE 13 22 7 12 1008.4 1008.4 0.0
27/11:30am 34.5 32.6 10.4 23 14.0 SE 11 17 6 9 1008.9 1008.9 0.0
27/11:00am 33.3 31.2 11.2 26 12.9 ENE 13 19 7 10 1009.3 1009.3 0.0
27/10:30am 31.8 29.3 11.0 28 12.0 E 15 22 8 12 1009.6 1009.6 0.0
27/10:00am 30.6 27.7 11.1 30 11.3 ENE 17 24 9 13 1009.7 1009.7 0.0
27/09:30am 28.7 25.6 10.4 32 10.4 ENE 17 24 9 13 1009.9 1009.9 0.0
27/09:00am 27.2 24.2 10.8 36 9.3 E 17 24 9 13 1010.1 1010.1 0.0
27/08:30am 25.8 22.4 10.4 38 8.6 E 19 26 10 14 1010.2 1010.2 0.0
27/08:00am 23.8 20.3 10.8 44 7.2 E 20 24 11 13 1010.3 1010.3 0.0
27/07:30am 22.1 18.6 10.9 49 6.2 E 20 28 11 15 1010.4 1010.4 0.0
27/07:00am 20.4 17.9 11.1 55 5.1 E 15 20 8 11 1010.5 1010.5 0.0
27/06:30am 18.7 16.9 11.0 61 4.2 ESE 11 17 6 9 1010.4 1010.4 0.0
27/06:00am 16.2 14.2 10.1 67 3.2 ESE 11 13 6 7 1010.4 1010.4 0.0
27/05:30am 16.3 14.6 9.9 66 3.4 ESE 9 11 5 6 1010.3 1010.3 0.0
27/05:00am 17.1 14.7 10.2 64 3.7 ESE 13 15 7 8 1010.0 1010.0 0.0
27/04:30am 17.4 15.0 10.1 62 3.9 E 13 19 7 10 1009.6 1009.6 0.0
27/04:00am 18.2 15.5 10.3 60 4.2 E 15 22 8 12 1009.5 1009.5 0.0
27/03:30am 18.8 15.2 10.4 58 4.5 E 20 28 11 15 1009.3 1009.3 0.0
27/03:00am 19.4 14.2 10.4 56 4.9 E 28 37 15 20 1009.0 1009.0 0.0
27/02:30am 19.8 14.6 10.2 54 5.2 E 28 35 15 19 1008.8 1008.8 0.0
27/02:00am 20.3 14.7 10.1 52 5.5 E 30 37 16 20 1008.9 1008.9 0.0
27/01:30am 21.0 15.7 9.9 49 6.0 E 28 37 15 20 1009.1 1009.1 0.0
27/01:00am 21.5 16.5 9.7 47 6.4 E 26 33 14 18 1009.4 1009.4 0.0
27/12:30am 21.9 17.0 9.8 46 6.5 E 26 33 14 18 1009.5 1009.5 0.0
27/12:00am 22.8 17.8 9.6 43 7.2 E 26 33 14 18 1009.6 1009.6 0.0
 
Date/Time
WST
Temp
°C
App
Temp
°C
Dew
Point
Rel
Hum
%
Delta-T
°C
Wind Press
QNH
hPa
Press
MSL
hPa
Rain
since 9 am
mm
Dir
 
Spd
km/h
Gust
km/h
Spd
kts
Gust
kts
26/11:30pm 23.2 18.6 9.6 42 7.4 E 24 32 13 17 1009.7 1009.7 0.0
26/11:00pm 23.3 19.0 9.3 41 7.6 ESE 22 28 12 15 1009.7 1009.7 0.0
26/10:30pm 21.1 18.9 12.0 56 5.1 SE 15 20 8 11 1010.0 1010.0 0.0
26/10:00pm 21.0 19.9 13.2 61 4.5 SE 11 17 6 9 1010.2 1010.2 0.0
26/09:30pm 21.8 20.6 13.9 61 4.6 S 13 15 7 8 1010.0 1010.0 0.0
26/09:00pm 22.8 21.2 13.8 57 5.3 S 15 17 8 9 1009.9 1009.9 0.0
26/08:30pm 23.7 21.7 13.8 53 5.8 S 17 19 9 10 1009.9 1009.9 0.0
26/08:00pm 24.6 22.5 13.5 50 6.5 S 17 20 9 11 1009.8 1009.8 0.0
26/07:30pm 26.4 23.5 12.8 43 7.9 S 20 26 11 14 1009.8 1009.8 0.0
26/07:00pm 28.6 25.6 12.5 37 9.4 S 20 26 11 14 1009.7 1009.7 0.0
26/06:30pm 30.3 27.0 12.7 34 10.4 SSW 22 28 12 15 1009.4 1009.4 0.0
26/06:00pm 33.4 29.8 5.0 17 15.1 ESE 13 20 7 11 1009.2 1009.2 0.0
26/05:30pm 33.7 30.2 5.3 17 15.2 ESE 13 22 7 12 1009.2 1009.2 0.0
26/05:00pm 33.9 29.8 4.6 16 15.5 ENE 15 22 8 12 1009.2 1009.2 0.0
26/04:30pm 33.6 30.0 6.8 19 14.7 E 15 24 8 13 1009.5 1009.5 0.0
26/04:00pm 34.0 30.1 7.1 19 14.8 E 17 28 9 15 1009.7 1009.7 0.0
26/03:30pm 33.2 30.3 6.5 19 14.5 E 11 17 6 9 1009.9 1009.9 0.0
26/03:00pm 33.0 30.0 7.8 21 14.0 ESE 13 24 7 13 1010.3 1010.3 0.0
26/02:30pm 32.5 29.4 8.7 23 13.3 SSE 15 24 8 13 1010.6 1010.6 0.0
26/02:00pm 32.6 29.3 8.1 22 13.6 E 15 24 8 13 1011.0 1011.0 0.0
26/01:30pm 32.0 28.3 9.5 25 12.7 ESE 19 28 10 15 1011.3 1011.3 0.0
26/01:00pm 31.1 27.9 9.9 27 12.0 SSE 17 24 9 13 1011.9 1011.9 0.0
26/12:30pm 29.7 25.9 9.8 29 11.2 SE 20 32 11 17 1012.5 1012.5 0.0
26/12:00pm 29.7 26.2 10.3 30 11.0 E 19 28 10 15 1013.1 1013.1 0.0
26/11:30am 27.9 24.3 9.7 32 10.1 ESE 19 28 10 15 1013.7 1013.7 0.0
26/11:00am 27.1 22.6 9.9 34 9.6 ESE 24 35 13 19 1014.3 1014.3 0.0
26/10:30am 25.8 21.7 10.0 37 8.8 ESE 22 32 12 17 1014.8 1014.8 0.0
26/10:00am 24.1 19.4 9.3 39 8.0 ESE 24 32 13 17 1015.3 1015.3 0.0
26/09:30am 23.0 18.7 9.4 42 7.3 ESE 22 30 12 16 1015.6 1015.6 0.0
26/09:00am 21.5 16.4 9.1 45 6.6 ESE 26 32 14 17 1016.0 1016.0 0.0
26/08:30am 20.0 15.2 9.0 49 5.8 ESE 24 30 13 16 1016.4 1016.4 0.0
26/08:00am 18.6 13.7 8.6 52 5.2 ESE 24 32 13 17 1016.8 1016.8 0.0
26/07:30am 17.2 12.3 8.4 56 4.5 ESE 24 30 13 16 1017.1 1017.1 0.0
26/07:00am 16.3 11.7 8.3 59 4.1 ESE 22 30 12 16 1017.2 1017.2 0.0
26/06:30am 15.2 11.5 8.0 62 3.6 ESE 17 22 9 12 1017.4 1017.4 0.0
26/06:00am 14.0 10.3 7.8 66 3.1 ESE 17 20 9 11 1017.5 1017.5 0.0
26/05:30am 13.5 9.3 7.5 67 2.9 ESE 19 24 10 13 1017.2 1017.2 0.0
26/05:00am 13.9 9.1 7.4 65 3.2 ESE 22 28 12 15 1016.9 1016.9 0.0
26/04:30am 14.0 8.5 7.5 65 3.2 ESE 26 35 14 19 1016.6 1016.6 0.0
26/04:00am 14.0 8.4 7.3 64 3.3 ESE 26 32 14 17 1016.7 1016.7 0.0
26/03:30am 14.3 8.4 7.4 63 3.4 ESE 28 35 15 19 1016.8 1016.8 0.0
26/03:00am 14.8 9.6 7.4 61 3.6 ESE 24 32 13 17 1016.8 1016.8 0.0
26/02:30am 15.0 10.6 7.3 60 3.8 ESE 20 30 11 16 1016.8 1016.8 0.0
26/02:00am 15.7 10.2 7.5 58 4.1 ESE 26 35 14 19 1016.7 1016.7 0.0
26/01:30am 16.3 11.2 7.5 56 4.4 ESE 24 32 13 17 1016.7 1016.7 0.0
26/01:00am 16.6 12.5 7.8 56 4.4 ESE 19 32 10 17 1016.7 1016.7 0.0
26/12:30am 17.1 12.8 7.7 54 4.7 ESE 20 32 11 17 1016.6 1016.6 0.0
26/12:00am 17.6 13.5 7.9 53 4.9 ESE 19 26 10 14 1016.6 1016.6 0.0
 
Date/Time
WST
Temp
°C
App
Temp
°C
Dew
Point
Rel
Hum
%
Delta-T
°C
Wind Press
QNH
hPa
Press
MSL
hPa
Rain
since 9 am
mm
Dir
 
Spd
km/h
Gust
km/h
Spd
kts
Gust
kts
25/11:30pm 18.0 14.5 8.6 54 4.9 SE 17 26 9 14 1016.5 1016.5 0.0
25/11:00pm 18.6 15.2 9.1 54 5.0 SE 17 24 9 13 1016.5 1016.5 0.0
25/10:30pm 18.6 15.4 9.9 57 4.6 SE 17 20 9 11 1016.4 1016.4 0.0
25/10:00pm 19.1 15.7 10.6 58 4.6 SSE 19 24 10 13 1016.2 1016.2 0.0
25/09:30pm 18.8 15.4 11.1 61 4.2 S 20 28 11 15 1016.2 1016.2 0.0
25/09:00pm 19.3 14.8 11.3 60 4.4 S 26 32 14 17 1016.0 1016.0 0.0
25/08:30pm 19.4 15.4 11.9 62 4.2 S 24 32 13 17 1015.7 1015.7 0.0
25/08:00pm 20.3 16.0 12.0 59 4.6 S 26 32 14 17 1015.3 1015.3 0.0
25/07:30pm 21.2 16.9 12.1 56 5.1 S 26 35 14 19 1015.2 1015.2 0.0
25/07:00pm 22.8 17.8 12.1 51 6.0 S 30 39 16 21 1015.1 1015.1 0.0
25/06:30pm 24.4 19.3 12.0 46 7.1 S 30 39 16 21 1014.8 1014.8 0.0
25/06:00pm 25.8 20.7 11.9 42 7.9 S 30 39 16 21 1014.6 1014.6 0.0
25/05:30pm 27.2 21.7 12.0 38 8.8 SSW 32 37 17 20 1014.4 1014.4 0.0
25/05:00pm 29.0 24.3 12.0 35 9.9 S 28 33 15 18 1014.3 1014.3 0.0
25/04:30pm 30.1 25.9 7.3 24 12.3 SE 19 28 10 15 1014.4 1014.4 0.0
25/04:00pm 30.3 26.0 6.9 23 12.6 ESE 19 26 10 14 1014.7 1014.7 0.0
25/03:30pm 30.5 26.5 8.3 25 12.2 E 19 33 10 18 1014.9 1014.9 0.0
25/03:00pm 29.1 24.7 7.6 26 11.6 SE 20 30 11 16 1015.4 1015.4 0.0
25/02:30pm 29.1 24.9 8.2 27 11.4 ESE 20 35 11 19 1015.8 1015.8 0.0
25/02:00pm 29.0 24.8 8.1 27 11.4 E 20 30 11 16 1016.2 1016.2 0.0
25/01:30pm 28.0 24.0 8.3 29 10.7 ESE 19 33 10 18 1016.3 1016.3 0.0
25/01:00pm 27.3 23.7 8.2 30 10.3 SE 17 28 9 15 1016.8 1016.8 0.0
25/12:30pm 26.3 22.2 7.8 31 9.9 SE 19 33 10 18 1017.2 1017.2 0.0

Other Formats:

Comma delimited format used in spreadsheet applications
http://www.bom.gov.au/fwo/IDW60801/IDW60801.95611.axf

JavaScript Object Notation format (JSON) in row-major order
http://www.bom.gov.au/fwo/IDW60801/IDW60801.95611.json